Time,TemperatureF,DewpointF,PressureIn,WindDirection,WindDirectionDegrees,WindSpeedMPH,WindSpeedGustMPH,Humidity,HourlyPrecipIn,Conditions,Clouds,dailyrainin,SoftwareType,DateUTC
2013-08-07 00:11:00,74.0,73.0,-100.00,NW,315,2.0,7.0,98,0.00,,,1.09,,2013-08-07 05:11:00,
2013-08-07 00:22:00,74.0,73.0,-100.00,NW,315,2.0,7.0,98,0.00,,,1.09,,2013-08-07 05:22:00,
2013-08-07 00:32:00,74.0,73.0,-100.00,NW,315,2.0,7.0,98,0.00,,,1.09,,2013-08-07 05:32:00,
2013-08-07 00:43:00,74.0,73.0,-100.00,NW,315,2.0,7.0,98,0.00,,,1.09,,2013-08-07 05:43:00,
2013-08-07 01:11:00,74.0,74.0,-100.00,South,176,0.0,5.0,99,0.00,,,1.09,,2013-08-07 06:11:00,
2013-08-07 01:22:00,74.0,74.0,-100.00,South,176,0.0,5.0,99,0.00,,,1.09,,2013-08-07 06:22:00,
2013-08-07 01:32:00,74.0,74.0,-100.00,South,176,0.0,5.0,99,0.00,,,1.09,,2013-08-07 06:32:00,
2013-08-07 01:43:00,74.0,74.0,-100.00,South,176,0.0,5.0,99,0.00,,,1.09,,2013-08-07 06:43:00,
2013-08-07 02:12:00,73.0,73.0,-100.00,ESE,112,1.0,2.0,99,0.00,,,1.09,,2013-08-07 07:12:00,
2013-08-07 02:22:00,73.0,73.0,-100.00,ESE,112,1.0,2.0,99,0.00,,,1.09,,2013-08-07 07:22:00,
2013-08-07 02:33:00,73.0,73.0,-100.00,ESE,112,1.0,2.0,99,0.00,,,1.09,,2013-08-07 07:33:00,
2013-08-07 02:43:00,73.0,73.0,-100.00,ESE,112,1.0,2.0,99,0.00,,,1.09,,2013-08-07 07:43:00,
2013-08-07 03:11:00,73.0,73.0,-100.00,WNW,294,0.0,2.0,99,0.00,,,1.09,,2013-08-07 08:11:00,
2013-08-07 03:22:00,73.0,73.0,-100.00,WNW,294,0.0,2.0,99,0.00,,,1.09,,2013-08-07 08:22:00,
2013-08-07 03:32:00,73.0,73.0,-100.00,WNW,294,0.0,2.0,99,0.00,,,1.09,,2013-08-07 08:32:00,
2013-08-07 03:44:00,73.0,73.0,-100.00,WNW,294,0.0,2.0,99,0.00,,,1.09,,2013-08-07 08:44:00,
2013-08-07 04:11:00,73.0,73.0,-100.00,East,95,0.0,1.0,99,0.00,,,1.09,,2013-08-07 09:11:00,
2013-08-07 04:22:00,73.0,73.0,-100.00,East,95,0.0,1.0,99,0.00,,,1.09,,2013-08-07 09:22:00,
2013-08-07 04:32:00,73.0,73.0,-100.00,East,95,0.0,1.0,99,0.00,,,1.09,,2013-08-07 09:32:00,
2013-08-07 04:43:00,73.0,73.0,-100.00,East,95,0.0,1.0,99,0.00,,,1.09,,2013-08-07 09:43:00,
2013-08-07 05:11:00,73.0,73.0,-100.00,North,357,1.0,3.0,99,0.00,,,1.09,,2013-08-07 10:11:00,
2013-08-07 05:22:00,73.0,73.0,-100.00,North,357,1.0,3.0,99,0.00,,,1.09,,2013-08-07 10:22:00,
2013-08-07 05:32:00,73.0,73.0,-100.00,North,357,1.0,3.0,99,0.00,,,1.09,,2013-08-07 10:32:00,
2013-08-07 05:43:00,73.0,73.0,-100.00,North,357,1.0,3.0,99,0.00,,,1.09,,2013-08-07 10:43:00,
2013-08-07 06:11:00,72.0,72.0,-100.00,SSE,160,1.0,2.0,99,0.00,,,1.09,,2013-08-07 11:11:00,
2013-08-07 06:22:00,72.0,72.0,-100.00,SSE,160,1.0,2.0,99,0.00,,,1.09,,2013-08-07 11:22:00,
2013-08-07 06:32:00,72.0,72.0,-100.00,SSE,160,1.0,2.0,99,0.00,,,1.09,,2013-08-07 11:32:00,
2013-08-07 06:43:00,72.0,72.0,-100.00,SSE,160,1.0,2.0,99,0.00,,,1.09,,2013-08-07 11:43:00,
2013-08-07 07:11:00,72.0,72.0,-100.00,NNE,33,0.0,0.0,99,0.00,,,1.09,,2013-08-07 12:11:00,
2013-08-07 07:22:00,72.0,72.0,-100.00,NNE,33,0.0,0.0,99,0.00,,,1.09,,2013-08-07 12:22:00,
2013-08-07 07:32:00,72.0,72.0,-100.00,NNE,33,0.0,0.0,99,0.00,,,1.09,,2013-08-07 12:32:00,
2013-08-07 07:43:00,72.0,72.0,-100.00,NNE,33,0.0,0.0,99,0.00,,,1.09,,2013-08-07 12:43:00,
2013-08-07 08:11:00,75.0,75.0,-100.00,South,169,1.0,2.0,99,0.00,,,1.08,,2013-08-07 13:11:00,
2013-08-07 08:22:00,75.0,75.0,-100.00,South,169,1.0,2.0,99,0.00,,,1.08,,2013-08-07 13:22:00,
2013-08-07 08:32:00,75.0,75.0,-100.00,South,169,1.0,2.0,99,0.00,,,1.08,,2013-08-07 13:32:00,
2013-08-07 08:44:00,75.0,75.0,-100.00,South,169,1.0,2.0,99,0.00,,,1.08,,2013-08-07 13:44:00,
2013-08-07 09:12:00,84.0,80.0,-100.00,South,182,2.0,3.0,87,0.00,,,1.08,,2013-08-07 14:12:00,
2013-08-07 09:22:00,84.0,80.0,-100.00,South,182,2.0,3.0,87,0.00,,,1.08,,2013-08-07 14:22:00,
2013-08-07 09:33:00,84.0,80.0,-100.00,South,182,2.0,3.0,87,0.00,,,1.08,,2013-08-07 14:33:00,
2013-08-07 09:43:00,84.0,80.0,-100.00,South,182,2.0,3.0,87,0.00,,,1.08,,2013-08-07 14:43:00,
2013-08-07 12:33:00,96.0,79.0,-100.00,East,79,2.0,6.0,59,0.00,,,1.08,,2013-08-07 17:33:00,
2013-08-07 12:43:00,96.0,79.0,-100.00,East,79,2.0,6.0,59,0.00,,,1.08,,2013-08-07 17:43:00,
2013-08-07 13:11:00,96.0,77.0,-100.00,NE,42,2.0,7.0,55,0.00,,,1.08,,2013-08-07 18:11:00,
2013-08-07 13:22:00,96.0,77.0,-100.00,NE,42,2.0,7.0,55,0.00,,,1.08,,2013-08-07 18:22:00,
2013-08-07 13:32:00,96.0,77.0,-100.00,NE,42,2.0,7.0,55,0.00,,,1.08,,2013-08-07 18:32:00,
2013-08-07 13:43:00,96.0,77.0,-100.00,NE,42,2.0,7.0,55,0.00,,,1.08,,2013-08-07 18:43:00,
2013-08-07 14:11:00,96.0,75.0,-100.00,SE,142,4.0,7.0,51,0.00,,,-99.99,,2013-08-07 19:11:00,
2013-08-07 14:22:00,96.0,75.0,-100.00,SE,142,4.0,7.0,51,0.00,,,-99.99,,2013-08-07 19:22:00,
2013-08-07 14:32:00,96.0,75.0,-100.00,SE,142,4.0,7.0,51,0.00,,,-99.99,,2013-08-07 19:32:00,
2013-08-07 14:44:00,96.0,75.0,-100.00,SE,142,4.0,7.0,51,0.00,,,-99.99,,2013-08-07 19:44:00,
2013-08-07 16:11:00,88.0,74.0,-100.00,SW,231,5.0,13.0,64,-99.99,,,1.08,,2013-08-07 21:11:00,
2013-08-07 16:22:00,88.0,74.0,-100.00,SW,231,5.0,13.0,64,-99.99,,,1.08,,2013-08-07 21:22:00,
2013-08-07 16:32:00,88.0,74.0,-100.00,SW,231,5.0,13.0,64,-99.99,,,1.08,,2013-08-07 21:32:00,
2013-08-07 16:43:00,88.0,74.0,-100.00,SW,231,5.0,13.0,64,-99.99,,,1.08,,2013-08-07 21:43:00,
2013-08-07 18:11:00,86.0,76.0,-100.00,West,281,1.0,7.0,73,-99.99,,,1.08,,2013-08-07 23:11:00,
2013-08-07 18:22:00,86.0,76.0,-100.00,West,281,1.0,7.0,73,-99.99,,,1.08,,2013-08-07 23:22:00,
2013-08-07 18:32:00,86.0,76.0,-100.00,West,281,1.0,7.0,73,-99.99,,,1.08,,2013-08-07 23:32:00,
2013-08-07 18:43:00,86.0,76.0,-100.00,West,281,1.0,7.0,73,-99.99,,,1.08,,2013-08-07 23:43:00,
2013-08-07 19:11:00,87.0,82.0,-100.00,WNW,282,1.0,3.0,84,0.00,,,1.08,,2013-08-08 00:11:00,
2013-08-07 19:22:00,87.0,82.0,-100.00,WNW,282,1.0,3.0,84,0.00,,,1.08,,2013-08-08 00:22:00,
2013-08-07 19:32:00,87.0,82.0,-100.00,WNW,282,1.0,3.0,84,0.00,,,1.08,,2013-08-08 00:32:00,
2013-08-07 19:42:00,87.0,82.0,-100.00,WNW,282,1.0,3.0,84,0.00,,,1.08,,2013-08-08 00:42:00,
2013-08-07 20:11:00,83.0,77.0,-100.00,East,98,0.0,2.0,82,0.00,,,1.08,,2013-08-08 01:11:00,
2013-08-07 20:22:00,83.0,77.0,-100.00,East,98,0.0,2.0,82,0.00,,,1.08,,2013-08-08 01:22:00,
2013-08-07 20:32:00,83.0,77.0,-100.00,East,98,0.0,2.0,82,0.00,,,1.08,,2013-08-08 01:32:00,
2013-08-07 20:43:00,83.0,77.0,-100.00,East,98,0.0,2.0,82,0.00,,,1.08,,2013-08-08 01:43:00,
2013-08-07 21:11:00,80.0,78.0,-100.00,ENE,70,1.0,1.0,94,0.00,,,1.08,,2013-08-08 02:11:00,
2013-08-07 21:22:00,80.0,78.0,-100.00,ENE,70,1.0,1.0,94,0.00,,,1.08,,2013-08-08 02:22:00,
2013-08-07 21:32:00,80.0,78.0,-100.00,ENE,70,1.0,1.0,94,0.00,,,1.08,,2013-08-08 02:32:00,
2013-08-07 21:42:00,80.0,78.0,-100.00,ENE,70,1.0,1.0,94,0.00,,,1.08,,2013-08-08 02:42:00,
2013-08-07 22:12:00,79.0,78.0,-100.00,East,95,1.0,1.0,97,0.00,,,1.00,,2013-08-08 03:12:00,
2013-08-07 22:22:00,79.0,78.0,-100.00,East,95,1.0,1.0,97,0.00,,,1.00,,2013-08-08 03:22:00,
2013-08-07 22:32:00,79.0,78.0,-100.00,East,95,1.0,1.0,97,0.00,,,1.00,,2013-08-08 03:32:00,
2013-08-07 22:43:00,79.0,78.0,-100.00,East,95,1.0,1.0,97,0.00,,,1.00,,2013-08-08 03:43:00,
2013-08-07 23:11:00,78.0,77.0,-100.00,SSE,160,0.0,1.0,98,0.00,,,0.00,,2013-08-08 04:11:00,
2013-08-07 23:22:00,78.0,77.0,-100.00,SSE,160,0.0,1.0,98,0.00,,,0.00,,2013-08-08 04:22:00,
2013-08-07 23:33:00,78.0,77.0,-100.00,SSE,160,0.0,1.0,98,0.00,,,0.00,,2013-08-08 04:33:00,
2013-08-07 23:43:00,78.0,77.0,-100.00,SSE,160,0.0,1.0,98,0.00,,,0.00,,2013-08-08 04:43:00,